createdAt,value
2019-05-05T00:01:40.676Z,4.50
2019-05-05T00:04:34.740Z,4.30
2019-05-05T00:07:04.648Z,4.90
2019-05-05T00:09:34.917Z,4.73
2019-05-05T00:12:37.502Z,4.60
2019-05-05T00:15:27.305Z,4.47
2019-05-05T00:17:57.488Z,4.60
2019-05-05T00:20:27.630Z,4.80
2019-05-05T00:22:57.874Z,5.10
2019-05-05T00:25:28.034Z,5.53
2019-05-05T00:27:58.352Z,5.00
2019-05-05T00:30:28.460Z,5.17
2019-05-05T00:32:58.722Z,5.37
2019-05-05T00:35:28.898Z,5.50
2019-05-05T00:37:59.068Z,5.57
2019-05-05T00:40:29.273Z,5.20
2019-05-05T00:42:59.387Z,5.63
2019-05-05T00:45:30.465Z,5.23
2019-05-05T00:48:07.069Z,4.77
2019-05-05T00:50:37.429Z,5.30
2019-05-05T00:53:07.441Z,5.33
2019-05-05T00:55:37.484Z,5.40
2019-05-05T00:58:07.654Z,5.50
2019-05-05T01:00:51.562Z,5.17
2019-05-05T01:03:24.303Z,5.50
2019-05-05T01:06:19.578Z,5.87
2019-05-05T01:08:49.678Z,5.63
2019-05-05T01:11:20.860Z,6.00
2019-05-05T01:13:50.901Z,6.07
2019-05-05T01:16:21.040Z,6.00
2019-05-05T01:18:51.115Z,5.87
2019-05-05T01:21:21.191Z,5.60
2019-05-05T01:23:51.554Z,6.10
2019-05-05T01:26:21.661Z,6.70
2019-05-05T01:28:52.067Z,6.50
2019-05-05T01:31:22.599Z,6.40
2019-05-05T01:34:07.439Z,6.30
2019-05-05T01:36:37.590Z,6.47
2019-05-05T01:39:35.465Z,6.83
2019-05-05T01:42:11.728Z,6.47
2019-05-05T01:44:41.938Z,8.00
2019-05-05T01:47:12.055Z,7.87
2019-05-05T01:49:42.109Z,8.60
2019-05-05T01:52:12.155Z,7.63
2019-05-05T01:54:44.460Z,6.80
2019-05-05T01:57:14.971Z,7.77
2019-05-05T01:59:45.470Z,7.30
2019-05-05T02:02:15.609Z,7.30
2019-05-05T02:04:45.864Z,7.67
2019-05-05T02:07:16.010Z,6.90
2019-05-05T02:09:46.034Z,6.53
2019-05-05T02:12:16.152Z,6.67
2019-05-05T02:14:46.311Z,6.37
2019-05-05T02:17:16.363Z,6.70
2019-05-05T02:19:46.526Z,6.80
2019-05-05T02:22:16.765Z,6.97
2019-05-05T02:24:47.104Z,7.63
2019-05-05T02:27:19.684Z,7.30
2019-05-05T02:30:16.147Z,7.23
2019-05-05T02:32:52.043Z,7.30
2019-05-05T02:35:22.180Z,6.90
2019-05-05T02:37:52.272Z,6.63
2019-05-05T02:40:24.485Z,7.03
2019-05-05T02:42:55.113Z,6.40
2019-05-05T02:46:17.932Z,6.33
2019-05-05T02:48:50.595Z,6.43
2019-05-05T02:51:25.738Z,6.33
2019-05-05T02:53:57.315Z,5.97
2019-05-05T02:56:34.211Z,6.20
2019-05-05T02:59:07.722Z,6.63
2019-05-05T03:01:44.630Z,6.53
2019-05-05T03:04:14.697Z,6.10
2019-05-05T03:06:49.337Z,6.63
2019-05-05T03:09:21.056Z,6.73
2019-05-05T03:11:54.700Z,6.43
2019-05-05T03:14:26.932Z,6.17
2019-05-05T03:16:57.286Z,6.77
2019-05-05T03:19:27.881Z,6.00
2019-05-05T03:21:59.140Z,6.97
2019-05-05T03:24:29.858Z,7.50
2019-05-05T03:27:00.454Z,6.97
2019-05-05T03:29:30.724Z,6.40
2019-05-05T03:32:00.974Z,7.03
2019-05-05T03:34:31.425Z,7.83
2019-05-05T03:37:04.094Z,7.17
2019-05-05T03:39:34.637Z,7.40
2019-05-05T03:42:14.061Z,8.03
2019-05-05T03:45:14.381Z,7.93
2019-05-05T03:47:44.140Z,6.90
2019-05-05T03:50:14.732Z,7.90
2019-05-05T03:52:45.819Z,6.80
2019-05-05T03:55:15.858Z,7.20
2019-05-05T03:57:46.186Z,7.90
2019-05-05T04:00:25.868Z,6.97
2019-05-05T04:03:00.646Z,6.90
2019-05-05T04:05:34.761Z,7.10
2019-05-05T04:08:04.807Z,7.27
2019-05-05T04:10:35.086Z,7.67
2019-05-05T04:13:05.119Z,6.90
2019-05-05T04:15:36.441Z,6.67
2019-05-05T04:18:27.931Z,7.30
2019-05-05T04:20:58.150Z,6.30
2019-05-05T04:23:29.105Z,6.63
2019-05-05T04:25:59.164Z,6.30
2019-05-05T04:28:29.226Z,6.47
2019-05-05T04:30:59.440Z,6.87
2019-05-05T04:33:29.538Z,5.93
2019-05-05T04:35:59.723Z,5.90
2019-05-05T04:38:29.838Z,5.93
2019-05-05T04:41:00.057Z,5.90
2019-05-05T04:43:30.199Z,5.37
2019-05-05T04:46:00.332Z,5.67
2019-05-05T04:48:45.599Z,5.77
2019-05-05T04:51:24.372Z,5.60
2019-05-05T04:54:10.493Z,5.50
2019-05-05T04:56:40.518Z,4.93
2019-05-05T04:59:10.642Z,5.50
2019-05-05T05:01:41.075Z,5.30
2019-05-05T05:04:28.820Z,5.17
2019-05-05T05:06:59.397Z,5.70
2019-05-05T05:09:29.445Z,5.60
2019-05-05T05:11:59.516Z,6.30
2019-05-05T05:14:29.583Z,5.50
2019-05-05T05:17:03.388Z,5.70
2019-05-05T05:19:33.574Z,6.03
2019-05-05T05:22:04.934Z,5.93
2019-05-05T05:24:35.133Z,5.43
2019-05-05T05:27:05.214Z,5.00
2019-05-05T05:29:35.404Z,5.90
2019-05-05T05:32:05.456Z,5.30
2019-05-05T05:34:35.888Z,5.13
2019-05-05T05:37:05.983Z,5.43
2019-05-05T05:40:01.410Z,5.00
2019-05-05T05:42:33.456Z,5.60
2019-05-05T05:45:14.631Z,5.37
2019-05-05T05:48:14.692Z,5.40
2019-05-05T05:50:50.645Z,5.43
2019-05-05T05:53:20.778Z,5.67
2019-05-05T05:55:50.825Z,5.70
2019-05-05T05:58:20.967Z,5.80
2019-05-05T06:00:51.436Z,5.43
2019-05-05T06:03:21.619Z,5.63
2019-05-05T06:05:53.883Z,5.50
2019-05-05T06:08:24.317Z,5.07
2019-05-05T06:10:54.900Z,5.80
2019-05-05T06:13:25.218Z,5.30
2019-05-05T06:15:55.417Z,4.93
2019-05-05T06:18:25.659Z,5.70
2019-05-05T06:20:55.863Z,5.67
2019-05-05T06:23:26.004Z,5.47
2019-05-05T06:25:56.073Z,6.00
2019-05-05T06:28:26.187Z,5.93
2019-05-05T06:30:56.306Z,5.77
2019-05-05T06:33:26.576Z,6.07
2019-05-05T06:35:56.698Z,6.37
2019-05-05T06:38:26.766Z,6.07
2019-05-05T06:41:20.165Z,6.30
2019-05-05T06:44:03.753Z,5.63
2019-05-05T06:46:53.743Z,5.73
2019-05-05T06:49:24.398Z,5.53
2019-05-05T06:51:55.718Z,6.37
2019-05-05T06:54:25.867Z,4.53
2019-05-05T06:56:56.002Z,5.67
2019-05-05T06:59:26.162Z,6.50
2019-05-05T07:01:56.386Z,6.03
2019-05-05T07:04:26.577Z,6.23
2019-05-05T07:06:57.418Z,5.47
2019-05-05T07:09:27.654Z,5.40
2019-05-05T07:11:57.951Z,5.53
2019-05-05T07:14:28.013Z,5.50
2019-05-05T07:16:58.332Z,4.53
2019-05-05T07:19:28.565Z,5.20
2019-05-05T07:21:58.617Z,4.87
2019-05-05T07:24:28.849Z,4.50
2019-05-05T07:26:58.983Z,4.67
2019-05-05T07:29:29.137Z,4.63
2019-05-05T07:31:59.266Z,4.63
2019-05-05T07:34:48.024Z,5.07
2019-05-05T07:37:18.113Z,5.00
2019-05-05T07:39:48.206Z,4.90
2019-05-05T07:42:18.270Z,4.47
2019-05-05T07:44:48.337Z,4.50
2019-05-05T07:47:18.542Z,4.67
2019-05-05T07:49:48.665Z,4.33
2019-05-05T07:52:18.776Z,3.90
2019-05-05T07:54:49.014Z,4.50
2019-05-05T07:57:19.055Z,4.27
2019-05-05T07:59:49.209Z,4.00
2019-05-05T08:02:19.447Z,4.50
2019-05-05T08:04:49.527Z,3.97
2019-05-05T08:07:19.690Z,4.17
2019-05-05T08:09:53.736Z,4.57
2019-05-05T08:12:24.988Z,4.37
2019-05-05T08:14:55.441Z,3.80
2019-05-05T08:17:44.738Z,4.20
2019-05-05T08:20:24.260Z,4.37
2019-05-05T08:22:54.416Z,4.13
2019-05-05T08:25:39.760Z,4.43
2019-05-05T08:28:24.853Z,4.50
2019-05-05T08:31:00.282Z,4.27
2019-05-05T08:33:30.498Z,4.37
2019-05-05T08:36:00.585Z,4.87
2019-05-05T08:38:30.645Z,4.53
2019-05-05T08:41:00.755Z,4.53
2019-05-05T08:43:34.728Z,4.43
2019-05-05T08:46:05.088Z,4.57
2019-05-05T08:48:35.224Z,4.57
2019-05-05T08:51:05.340Z,4.60
2019-05-05T08:53:45.043Z,4.53
2019-05-05T08:56:07.244Z,4.07
2019-05-05T08:58:37.458Z,4.10
2019-05-05T09:01:07.592Z,4.40
2019-05-05T09:03:37.701Z,3.70
2019-05-05T09:06:07.779Z,4.17
2019-05-05T09:08:37.920Z,4.17
2019-05-05T09:11:10.481Z,4.43
2019-05-05T09:13:40.605Z,3.80
2019-05-05T09:16:10.732Z,3.40
2019-05-05T09:18:58.472Z,3.60
2019-05-05T09:21:28.675Z,3.73
2019-05-05T09:24:03.193Z,4.07
2019-05-05T09:26:47.725Z,3.87
2019-05-05T09:29:24.775Z,4.07
2019-05-05T09:31:54.832Z,3.50
2019-05-05T09:34:24.885Z,3.83
2019-05-05T09:36:55.038Z,3.57
2019-05-05T09:39:25.347Z,3.60
2019-05-05T09:41:57.106Z,3.70
2019-05-05T09:44:27.363Z,4.10
2019-05-05T09:46:57.597Z,3.43
2019-05-05T09:49:27.710Z,3.17
2019-05-05T09:51:57.869Z,4.47
2019-05-05T09:54:28.024Z,4.03
2019-05-05T09:56:58.410Z,4.13
2019-05-05T09:59:28.449Z,3.03
2019-05-05T10:01:58.789Z,3.73
2019-05-05T10:04:30.561Z,3.77
2019-05-05T10:07:00.732Z,3.73
2019-05-05T10:09:30.865Z,4.33
2019-05-05T10:12:01.082Z,3.70
2019-05-05T10:14:31.211Z,4.20
2019-05-05T10:17:01.293Z,4.30
2019-05-05T10:19:31.406Z,4.80
2019-05-05T10:22:01.526Z,4.50
2019-05-05T10:24:36.642Z,4.27
2019-05-05T10:27:09.492Z,4.30
2019-05-05T10:29:41.434Z,4.50
2019-05-05T10:32:13.703Z,4.37
2019-05-05T10:34:44.987Z,4.50
2019-05-05T10:37:16.714Z,4.50
2019-05-05T10:39:51.304Z,4.40
2019-05-05T10:42:24.407Z,4.50
2019-05-05T10:44:54.650Z,5.20
2019-05-05T10:47:26.717Z,4.50
2019-05-05T10:49:57.058Z,4.50
2019-05-05T10:52:27.165Z,4.20
2019-05-05T10:54:59.775Z,4.63
2019-05-05T10:57:29.987Z,5.57
2019-05-05T11:00:11.675Z,4.57
2019-05-05T11:02:32.006Z,5.00
2019-05-05T11:05:03.971Z,4.83
2019-05-05T11:07:35.014Z,4.53
2019-05-05T11:10:06.103Z,3.93
2019-05-05T11:12:36.611Z,3.70
2019-05-05T11:15:06.836Z,3.70
2019-05-05T11:17:37.265Z,4.23
2019-05-05T11:20:08.170Z,3.90
2019-05-05T11:22:38.244Z,3.30
2019-05-05T11:25:08.399Z,3.47
2019-05-05T11:27:41.272Z,3.17
2019-05-05T11:30:26.812Z,3.30
2019-05-05T11:33:34.448Z,3.40
2019-05-05T11:36:34.460Z,3.10
2019-05-05T11:39:06.625Z,3.30
2019-05-05T11:41:36.655Z,3.23
2019-05-05T11:44:06.772Z,3.13
2019-05-05T11:46:39.207Z,3.03
2019-05-05T11:49:09.254Z,3.03
2019-05-05T11:51:39.290Z,2.90
2019-05-05T11:54:09.332Z,3.30
2019-05-05T11:56:39.432Z,3.67
2019-05-05T11:59:09.792Z,3.80
2019-05-05T12:01:39.982Z,3.40
2019-05-05T12:04:14.555Z,3.47
2019-05-05T12:06:45.005Z,3.63
2019-05-05T12:09:24.578Z,3.63
2019-05-05T12:11:54.660Z,3.37
2019-05-05T12:14:27.419Z,3.20
2019-05-05T12:16:59.588Z,3.33
2019-05-05T12:19:30.171Z,3.50
2019-05-05T12:22:00.284Z,3.63
2019-05-05T12:24:34.048Z,3.70
2019-05-05T12:27:22.095Z,3.83
2019-05-05T12:29:59.513Z,3.70
2019-05-05T12:32:29.604Z,4.13
2019-05-05T12:34:59.657Z,3.73
2019-05-05T12:37:34.121Z,4.10
2019-05-05T12:40:06.494Z,4.00
2019-05-05T12:42:37.019Z,3.80
2019-05-05T12:45:10.344Z,3.57
2019-05-05T12:47:59.316Z,4.30
2019-05-05T12:50:29.554Z,3.90
2019-05-05T12:53:04.070Z,3.97
2019-05-05T12:55:41.414Z,4.03
2019-05-05T12:58:06.251Z,4.43
2019-05-05T13:00:37.993Z,4.20
2019-05-05T13:03:08.034Z,5.03
2019-05-05T13:05:38.172Z,5.20
2019-05-05T13:08:08.316Z,5.53
2019-05-05T13:10:38.640Z,6.00
2019-05-05T13:13:08.634Z,5.97
2019-05-05T13:15:38.765Z,5.90
2019-05-05T13:18:08.916Z,6.30
2019-05-05T13:20:46.086Z,5.50
2019-05-05T13:23:35.179Z,5.63
2019-05-05T13:26:14.631Z,5.80
2019-05-05T13:28:46.947Z,5.63
2019-05-05T13:31:16.983Z,5.60
2019-05-05T13:33:47.147Z,5.17
2019-05-05T13:36:17.240Z,5.53
2019-05-05T13:38:47.405Z,4.50
2019-05-05T13:41:17.546Z,4.50
2019-05-05T13:43:47.585Z,4.30
2019-05-05T13:46:24.707Z,4.00
2019-05-05T13:48:58.128Z,4.20
2019-05-05T13:51:28.209Z,4.30
2019-05-05T13:53:58.363Z,3.93
2019-05-05T13:56:28.515Z,3.83
2019-05-05T13:58:58.865Z,3.97
2019-05-05T14:01:29.212Z,3.73
2019-05-05T14:03:59.245Z,3.97
2019-05-05T14:06:29.411Z,4.37
2019-05-05T14:08:59.536Z,4.10
2019-05-05T14:11:29.971Z,4.37
2019-05-05T14:14:00.117Z,4.00
2019-05-05T14:16:30.249Z,3.83
2019-05-05T14:19:00.295Z,4.73
2019-05-05T14:21:30.358Z,4.20
2019-05-05T14:24:28.664Z,3.83
2019-05-05T14:26:58.977Z,3.90
2019-05-05T14:29:40.186Z,3.53
2019-05-05T14:32:13.504Z,3.83
2019-05-05T14:34:47.729Z,3.70
2019-05-05T14:37:48.854Z,3.63
2019-05-05T14:40:18.995Z,3.90
2019-05-05T14:42:49.171Z,3.90
2019-05-05T14:45:19.980Z,3.67
2019-05-05T14:47:50.092Z,3.67
2019-05-05T14:50:20.290Z,3.63
2019-05-05T14:52:50.374Z,3.50
2019-05-05T14:55:22.365Z,3.70
2019-05-05T14:57:53.447Z,3.70
2019-05-05T15:00:25.711Z,3.50
2019-05-05T15:02:55.867Z,4.07
2019-05-05T15:05:44.379Z,3.53
2019-05-05T15:08:24.439Z,3.47
2019-05-05T15:11:14.216Z,3.40
2019-05-05T15:13:44.589Z,3.80
2019-05-05T15:16:14.764Z,4.30
2019-05-05T15:18:44.904Z,4.10
2019-05-05T15:21:16.615Z,4.00
2019-05-05T15:23:46.831Z,4.23
2019-05-05T15:26:16.917Z,3.83
2019-05-05T15:28:58.613Z,4.20
2019-05-05T15:31:19.753Z,4.03
2019-05-05T15:33:49.908Z,4.10
2019-05-05T15:36:19.971Z,4.00
2019-05-05T15:38:50.090Z,4.57
2019-05-05T15:41:20.293Z,5.40
2019-05-05T15:43:50.652Z,5.40
2019-05-05T15:46:20.700Z,5.57
2019-05-05T15:48:51.456Z,5.20
2019-05-05T15:51:23.580Z,5.40
2019-05-05T15:53:54.242Z,5.40
2019-05-05T15:56:24.529Z,6.03
2019-05-05T15:58:54.613Z,6.40
2019-05-05T16:01:24.821Z,5.90
2019-05-05T16:03:55.235Z,5.83
2019-05-05T16:06:25.401Z,5.90
2019-05-05T16:08:56.712Z,5.70
2019-05-05T16:11:27.129Z,5.97
2019-05-05T16:14:01.054Z,6.63
2019-05-05T16:16:40.419Z,6.97
2019-05-05T16:19:38.583Z,6.53
2019-05-05T16:22:36.443Z,5.53
2019-05-05T16:25:14.118Z,5.30
2019-05-05T16:27:46.547Z,4.67
2019-05-05T16:30:18.283Z,4.43
2019-05-05T16:32:48.495Z,4.50
2019-05-05T16:35:20.935Z,3.63
2019-05-05T16:37:51.849Z,3.10
2019-05-05T16:40:24.622Z,2.90
2019-05-05T16:42:56.264Z,2.80
2019-05-05T16:45:26.605Z,2.90
2019-05-05T16:47:56.796Z,3.07
2019-05-05T16:50:26.843Z,3.50
2019-05-05T16:53:03.973Z,3.17
2019-05-05T16:55:39.810Z,3.43
2019-05-05T16:58:10.820Z,3.30
2019-05-05T17:00:41.159Z,3.50
2019-05-05T17:03:13.349Z,3.70
2019-05-05T17:05:44.060Z,3.23
2019-05-05T17:08:15.370Z,3.87
2019-05-05T17:10:45.714Z,3.50
2019-05-05T17:13:24.138Z,4.07
2019-05-05T17:16:14.623Z,3.80
2019-05-05T17:18:54.251Z,3.53
2019-05-05T17:21:29.552Z,3.50
2019-05-05T17:24:00.870Z,3.27
2019-05-05T17:26:32.116Z,3.50
2019-05-05T17:29:03.753Z,3.50
2019-05-05T17:31:35.235Z,3.30
2019-05-05T17:34:05.617Z,3.33
2019-05-05T17:36:36.391Z,4.00
2019-05-05T17:39:08.996Z,3.40
2019-05-05T17:42:14.220Z,4.10
2019-05-05T17:44:54.052Z,3.60
2019-05-05T17:47:35.223Z,3.50
2019-05-05T17:50:30.172Z,3.60
2019-05-05T17:53:11.358Z,3.60
2019-05-05T17:55:42.202Z,3.43
2019-05-05T17:58:16.264Z,3.50
2019-05-05T18:00:54.559Z,3.80
2019-05-05T18:03:24.701Z,4.80
2019-05-05T18:06:20.104Z,5.50
2019-05-05T18:09:09.746Z,4.90
2019-05-05T18:11:47.459Z,3.87
2019-05-05T18:14:24.132Z,4.17
2019-05-05T18:16:54.384Z,3.97
2019-05-05T18:19:25.982Z,3.60
2019-05-05T18:21:56.021Z,3.57
2019-05-05T18:24:26.118Z,3.80
2019-05-05T18:26:57.165Z,3.37
2019-05-05T18:29:27.645Z,3.53
2019-05-05T18:31:58.261Z,3.50
2019-05-05T18:34:28.846Z,3.70
2019-05-05T18:36:58.981Z,3.50
2019-05-05T18:39:29.212Z,4.00
2019-05-05T18:42:05.761Z,3.53
2019-05-05T18:44:39.224Z,5.17
2019-05-05T18:47:14.785Z,4.27
2019-05-05T18:49:43.728Z,4.03
2019-05-05T18:52:14.050Z,4.20
2019-05-05T18:54:44.402Z,4.20
2019-05-05T18:57:14.661Z,4.43
2019-05-05T18:59:44.975Z,3.97
2019-05-05T19:02:53.619Z,4.20
2019-05-05T19:05:44.205Z,4.63
2019-05-05T19:08:18.392Z,3.97
2019-05-05T19:10:48.448Z,4.90
2019-05-05T19:13:18.588Z,4.50
2019-05-05T19:15:48.703Z,4.60
2019-05-05T19:18:19.057Z,4.67
2019-05-05T19:21:04.310Z,4.63
2019-05-05T19:23:35.696Z,4.77
2019-05-05T19:26:07.787Z,5.97
2019-05-05T19:28:44.238Z,5.27
2019-05-05T19:31:09.983Z,5.37
2019-05-05T19:33:40.084Z,5.20
2019-05-05T19:36:11.486Z,5.30
2019-05-05T19:38:43.982Z,4.83
2019-05-05T19:41:14.455Z,5.80
2019-05-05T19:43:54.817Z,5.50
2019-05-05T19:46:34.548Z,5.10
2019-05-05T19:49:17.447Z,5.27
2019-05-05T19:51:48.489Z,5.20
2019-05-05T19:54:18.732Z,6.20
2019-05-05T19:56:48.881Z,5.63
2019-05-05T19:59:20.746Z,5.27
2019-05-05T20:01:53.979Z,5.67
2019-05-05T20:04:24.313Z,5.83
2019-05-05T20:06:54.908Z,6.80
2019-05-05T20:09:25.273Z,6.37
2019-05-05T20:11:55.584Z,6.93
2019-05-05T20:14:44.919Z,6.37
2019-05-05T20:17:34.218Z,6.03
2019-05-05T20:20:05.727Z,6.20
2019-05-05T20:22:36.014Z,5.47
2019-05-05T20:25:07.205Z,5.73
2019-05-05T20:27:37.283Z,5.47
2019-05-05T20:30:07.840Z,5.43
2019-05-05T20:32:44.502Z,6.10
2019-05-05T20:35:21.138Z,6.13
2019-05-05T20:37:59.438Z,5.40
2019-05-05T20:40:32.345Z,5.50
2019-05-05T20:43:04.031Z,5.00
2019-05-05T20:45:35.500Z,4.67
2019-05-05T20:48:05.647Z,5.10
2019-05-05T20:50:35.802Z,5.80
2019-05-05T20:53:06.001Z,5.70
2019-05-05T20:55:36.318Z,5.93
2019-05-05T20:58:06.500Z,6.10
2019-05-05T21:00:36.645Z,6.17
2019-05-05T21:03:06.939Z,8.37
2019-05-05T21:05:37.006Z,5.87
2019-05-05T21:08:07.199Z,5.30
2019-05-05T21:10:37.892Z,4.90
2019-05-05T21:13:09.041Z,5.00
2019-05-05T21:15:39.294Z,8.20
2019-05-05T21:18:09.341Z,8.03
2019-05-05T21:20:39.387Z,6.77
2019-05-05T21:23:14.494Z,6.67
2019-05-05T21:25:51.303Z,6.20
2019-05-05T21:28:21.397Z,6.37
2019-05-05T21:30:53.800Z,9.13
2019-05-05T21:33:24.019Z,7.33
2019-05-05T21:35:55.101Z,7.70
2019-05-05T21:38:25.355Z,6.20
2019-05-05T21:40:55.485Z,6.57
2019-05-05T21:43:25.734Z,5.83
2019-05-05T21:45:55.800Z,5.70
2019-05-05T21:48:26.111Z,5.40
2019-05-05T21:51:04.679Z,5.73
2019-05-05T21:53:41.513Z,5.47
2019-05-05T21:56:39.990Z,5.50
2019-05-05T21:59:10.093Z,5.60
2019-05-05T22:01:41.113Z,5.57
2019-05-05T22:04:13.169Z,6.63
2019-05-05T22:06:43.218Z,6.50
2019-05-05T22:09:14.684Z,6.10
2019-05-05T22:11:44.894Z,6.57
2019-05-05T22:14:15.330Z,6.60
2019-05-05T22:16:45.400Z,6.73
2019-05-05T22:19:16.522Z,6.63
2019-05-05T22:21:54.566Z,6.37
2019-05-05T22:24:26.730Z,6.53
2019-05-05T22:26:56.856Z,6.23
2019-05-05T22:29:26.995Z,6.63
2019-05-05T22:31:57.236Z,6.57
2019-05-05T22:34:27.379Z,6.53
2019-05-05T22:36:57.796Z,6.23
2019-05-05T22:39:27.930Z,6.63
2019-05-05T22:41:58.047Z,6.83
2019-05-05T22:44:28.098Z,6.53
2019-05-05T22:46:58.137Z,6.97
2019-05-05T22:49:28.316Z,6.13
2019-05-05T22:51:58.419Z,7.23
2019-05-05T22:54:28.479Z,6.40
2019-05-05T22:56:59.064Z,7.20
2019-05-05T22:59:29.150Z,7.63
2019-05-05T23:01:59.335Z,7.53
2019-05-05T23:04:58.917Z,6.90
2019-05-05T23:07:30.992Z,6.30
2019-05-05T23:10:01.052Z,7.20
2019-05-05T23:12:31.101Z,6.90
2019-05-05T23:15:01.126Z,7.83
2019-05-05T23:17:54.212Z,7.37
2019-05-05T23:21:07.573Z,7.00
2019-05-05T23:23:56.005Z,6.90
2019-05-05T23:26:25.898Z,7.50
2019-05-05T23:28:55.930Z,7.87
2019-05-05T23:31:26.031Z,7.73
2019-05-05T23:33:56.078Z,7.70
2019-05-05T23:36:26.088Z,7.40
2019-05-05T23:38:56.801Z,7.33
2019-05-05T23:41:26.840Z,7.07
2019-05-05T23:43:56.975Z,7.20
2019-05-05T23:46:27.080Z,6.97
2019-05-05T23:48:57.132Z,7.60
2019-05-05T23:51:27.157Z,7.23
2019-05-05T23:53:58.489Z,7.47
2019-05-05T23:56:28.583Z,7.20
2019-05-05T23:58:58.721Z,7.53
